sensor_id;sensor_type;location;lat;lon;timestamp;temperature;humidity
17128;DHT22;8679;50.842;4.322;2022-08-01T00:01:35;20.60;99.90
17128;DHT22;8679;50.842;4.322;2022-08-01T00:04:00;20.60;99.90
17128;DHT22;8679;50.842;4.322;2022-08-01T00:06:27;20.50;99.90
17128;DHT22;8679;50.842;4.322;2022-08-01T00:08:53;20.60;99.90
17128;DHT22;8679;50.842;4.322;2022-08-01T00:11:18;20.60;99.90
17128;DHT22;8679;50.842;4.322;2022-08-01T00:13:44;20.60;99.90
17128;DHT22;8679;50.842;4.322;2022-08-01T00:16:10;20.60;99.90
17128;DHT22;8679;50.842;4.322;2022-08-01T00:18:35;20.50;99.90
17128;DHT22;8679;50.842;4.322;2022-08-01T00:21:02;20.50;99.90
17128;DHT22;8679;50.842;4.322;2022-08-01T00:23:28;20.50;99.90
17128;DHT22;8679;50.842;4.322;2022-08-01T00:25:55;20.40;99.90
17128;DHT22;8679;50.842;4.322;2022-08-01T00:28:21;20.40;99.90
17128;DHT22;8679;50.842;4.322;2022-08-01T00:30:46;20.30;99.90
17128;DHT22;8679;50.842;4.322;2022-08-01T00:33:12;20.30;99.90
17128;DHT22;8679;50.842;4.322;2022-08-01T00:35:38;20.30;99.90
17128;DHT22;8679;50.842;4.322;2022-08-01T00:38:03;20.30;99.90
17128;DHT22;8679;50.842;4.322;2022-08-01T00:40:29;20.30;99.90
17128;DHT22;8679;50.842;4.322;2022-08-01T00:42:55;20.40;99.90
17128;DHT22;8679;50.842;4.322;2022-08-01T00:45:20;20.30;99.90
17128;DHT22;8679;50.842;4.322;2022-08-01T00:47:46;20.30;99.90
17128;DHT22;8679;50.842;4.322;2022-08-01T00:50:12;20.30;99.90
17128;DHT22;8679;50.842;4.322;2022-08-01T00:52:39;20.30;99.90
17128;DHT22;8679;50.842;4.322;2022-08-01T00:55:06;20.30;99.90
17128;DHT22;8679;50.842;4.322;2022-08-01T00:57:32;20.30;99.90
17128;DHT22;8679;50.842;4.322;2022-08-01T00:59:58;20.30;99.90
17128;DHT22;8679;50.842;4.322;2022-08-01T01:02:24;20.30;99.90
17128;DHT22;8679;50.842;4.322;2022-08-01T01:04:49;20.30;99.90
17128;DHT22;8679;50.842;4.322;2022-08-01T01:07:34;20.30;99.90
17128;DHT22;8679;50.842;4.322;2022-08-01T01:12:44;20.30;99.90
17128;DHT22;8679;50.842;4.322;2022-08-01T01:15:24;20.30;99.90
17128;DHT22;8679;50.842;4.322;2022-08-01T01:17:57;20.30;99.90
17128;DHT22;8679;50.842;4.322;2022-08-01T01:20:30;20.20;99.90
17128;DHT22;8679;50.842;4.322;2022-08-01T01:26:29;20.20;99.90
17128;DHT22;8679;50.842;4.322;2022-08-01T01:31:25;20.10;99.90
17128;DHT22;8679;50.842;4.322;2022-08-01T01:33:54;20.10;99.90
17128;DHT22;8679;50.842;4.322;2022-08-01T01:36:21;20.00;99.90
17128;DHT22;8679;50.842;4.322;2022-08-01T01:38:50;19.90;99.90
17128;DHT22;8679;50.842;4.322;2022-08-01T01:41:18;19.90;99.90
17128;DHT22;8679;50.842;4.322;2022-08-01T01:43:45;19.80;99.90
17128;DHT22;8679;50.842;4.322;2022-08-01T01:46:12;19.80;99.90
17128;DHT22;8679;50.842;4.322;2022-08-01T01:48:43;19.80;99.90
17128;DHT22;8679;50.842;4.322;2022-08-01T01:51:11;19.80;99.90
17128;DHT22;8679;50.842;4.322;2022-08-01T01:53:38;19.70;99.90
17128;DHT22;8679;50.842;4.322;2022-08-01T01:56:05;19.80;99.90
17128;DHT22;8679;50.842;4.322;2022-08-01T01:58:34;19.80;99.90
17128;DHT22;8679;50.842;4.322;2022-08-01T02:01:02;19.80;99.90
17128;DHT22;8679;50.842;4.322;2022-08-01T02:03:29;19.80;99.90
17128;DHT22;8679;50.842;4.322;2022-08-01T02:05:55;19.70;99.90
17128;DHT22;8679;50.842;4.322;2022-08-01T02:08:24;19.70;99.90
17128;DHT22;8679;50.842;4.322;2022-08-01T02:10:52;19.70;99.90
17128;DHT22;8679;50.842;4.322;2022-08-01T02:13:38;19.70;99.90
17128;DHT22;8679;50.842;4.322;2022-08-01T02:16:05;19.70;99.90
17128;DHT22;8679;50.842;4.322;2022-08-01T02:18:32;19.60;99.90
17128;DHT22;8679;50.842;4.322;2022-08-01T02:21:00;19.60;99.90
17128;DHT22;8679;50.842;4.322;2022-08-01T02:23:31;19.50;99.90
17128;DHT22;8679;50.842;4.322;2022-08-01T02:26:00;19.60;99.90
17128;DHT22;8679;50.842;4.322;2022-08-01T02:28:35;19.50;99.90
17128;DHT22;8679;50.842;4.322;2022-08-01T02:31:05;19.60;99.90
17128;DHT22;8679;50.842;4.322;2022-08-01T02:33:38;19.50;99.90
17128;DHT22;8679;50.842;4.322;2022-08-01T02:36:05;19.60;99.90
17128;DHT22;8679;50.842;4.322;2022-08-01T02:38:33;19.60;99.90
17128;DHT22;8679;50.842;4.322;2022-08-01T02:41:05;19.60;99.90
17128;DHT22;8679;50.842;4.322;2022-08-01T02:43:33;19.60;99.90
17128;DHT22;8679;50.842;4.322;2022-08-01T02:46:01;19.60;99.90
17128;DHT22;8679;50.842;4.322;2022-08-01T02:48:28;19.60;99.90
17128;DHT22;8679;50.842;4.322;2022-08-01T02:51:00;19.60;99.90
17128;DHT22;8679;50.842;4.322;2022-08-01T02:53:27;19.60;99.90
17128;DHT22;8679;50.842;4.322;2022-08-01T02:55:57;19.60;99.90
17128;DHT22;8679;50.842;4.322;2022-08-01T02:58:25;19.60;99.90
17128;DHT22;8679;50.842;4.322;2022-08-01T03:00:51;19.60;99.90
17128;DHT22;8679;50.842;4.322;2022-08-01T03:03:17;19.50;99.90
17128;DHT22;8679;50.842;4.322;2022-08-01T03:05:44;19.60;99.90
17128;DHT22;8679;50.842;4.322;2022-08-01T03:08:11;19.60;99.90
17128;DHT22;8679;50.842;4.322;2022-08-01T03:10:40;19.60;99.90
17128;DHT22;8679;50.842;4.322;2022-08-01T03:13:08;19.50;99.90
17128;DHT22;8679;50.842;4.322;2022-08-01T03:15:37;19.50;99.90
17128;DHT22;8679;50.842;4.322;2022-08-01T03:18:06;19.40;99.90
17128;DHT22;8679;50.842;4.322;2022-08-01T03:20:33;19.40;99.90
17128;DHT22;8679;50.842;4.322;2022-08-01T03:23:03;19.50;99.90
17128;DHT22;8679;50.842;4.322;2022-08-01T03:25:31;19.50;99.90
17128;DHT22;8679;50.842;4.322;2022-08-01T03:27:59;19.50;99.90
17128;DHT22;8679;50.842;4.322;2022-08-01T03:30:27;19.40;99.90
17128;DHT22;8679;50.842;4.322;2022-08-01T03:32:54;19.40;99.90
17128;DHT22;8679;50.842;4.322;2022-08-01T03:35:22;19.40;99.90
17128;DHT22;8679;50.842;4.322;2022-08-01T03:37:52;19.40;99.90
17128;DHT22;8679;50.842;4.322;2022-08-01T03:46:16;19.20;99.90
17128;DHT22;8679;50.842;4.322;2022-08-01T03:48:50;19.10;99.90
17128;DHT22;8679;50.842;4.322;2022-08-01T03:51:17;19.10;99.90
17128;DHT22;8679;50.842;4.322;2022-08-01T03:53:45;19.10;99.90
17128;DHT22;8679;50.842;4.322;2022-08-01T03:56:16;19.10;99.90
17128;DHT22;8679;50.842;4.322;2022-08-01T03:58:45;19.00;99.90
17128;DHT22;8679;50.842;4.322;2022-08-01T04:01:12;19.00;99.90
17128;DHT22;8679;50.842;4.322;2022-08-01T04:03:38;18.90;99.90
17128;DHT22;8679;50.842;4.322;2022-08-01T04:06:06;18.80;99.90
17128;DHT22;8679;50.842;4.322;2022-08-01T04:08:35;18.80;99.90
17128;DHT22;8679;50.842;4.322;2022-08-01T04:11:01;18.80;99.90
17128;DHT22;8679;50.842;4.322;2022-08-01T04:13:27;18.80;99.90
17128;DHT22;8679;50.842;4.322;2022-08-01T04:15:52;18.70;99.90
17128;DHT22;8679;50.842;4.322;2022-08-01T04:18:18;18.80;99.90
17128;DHT22;8679;50.842;4.322;2022-08-01T04:20:46;18.70;99.90
17128;DHT22;8679;50.842;4.322;2022-08-01T04:23:15;18.80;99.90
17128;DHT22;8679;50.842;4.322;2022-08-01T04:25:42;18.80;99.90
17128;DHT22;8679;50.842;4.322;2022-08-01T04:28:10;18.80;99.90
17128;DHT22;8679;50.842;4.322;2022-08-01T04:30:43;18.70;99.90
17128;DHT22;8679;50.842;4.322;2022-08-01T04:33:12;18.70;99.90
17128;DHT22;8679;50.842;4.322;2022-08-01T04:35:44;18.70;99.90
17128;DHT22;8679;50.842;4.322;2022-08-01T04:38:12;18.70;99.90
17128;DHT22;8679;50.842;4.322;2022-08-01T04:40:40;18.80;99.90
17128;DHT22;8679;50.842;4.322;2022-08-01T04:43:07;18.80;99.90
17128;DHT22;8679;50.842;4.322;2022-08-01T04:45:34;18.80;99.90
17128;DHT22;8679;50.842;4.322;2022-08-01T04:48:00;18.80;99.90
17128;DHT22;8679;50.842;4.322;2022-08-01T04:50:27;18.90;99.90
17128;DHT22;8679;50.842;4.322;2022-08-01T04:52:53;18.90;99.90
17128;DHT22;8679;50.842;4.322;2022-08-01T04:55:19;18.90;99.90
17128;DHT22;8679;50.842;4.322;2022-08-01T04:57:46;18.90;99.90
17128;DHT22;8679;50.842;4.322;2022-08-01T05:00:13;18.90;99.90
17128;DHT22;8679;50.842;4.322;2022-08-01T05:02:38;19.00;99.90
17128;DHT22;8679;50.842;4.322;2022-08-01T05:05:05;19.00;99.90
17128;DHT22;8679;50.842;4.322;2022-08-01T05:07:33;19.00;99.90
17128;DHT22;8679;50.842;4.322;2022-08-01T05:10:02;19.10;99.90
17128;DHT22;8679;50.842;4.322;2022-08-01T05:12:28;19.10;99.90
17128;DHT22;8679;50.842;4.322;2022-08-01T05:14:54;19.20;99.90
17128;DHT22;8679;50.842;4.322;2022-08-01T05:17:20;19.20;99.90
17128;DHT22;8679;50.842;4.322;2022-08-01T05:19:46;19.20;99.90
17128;DHT22;8679;50.842;4.322;2022-08-01T05:22:11;19.20;99.90
17128;DHT22;8679;50.842;4.322;2022-08-01T05:24:39;19.30;99.90
17128;DHT22;8679;50.842;4.322;2022-08-01T05:27:05;19.30;99.90
17128;DHT22;8679;50.842;4.322;2022-08-01T05:29:32;19.30;99.90
17128;DHT22;8679;50.842;4.322;2022-08-01T05:31:58;19.40;99.90
17128;DHT22;8679;50.842;4.322;2022-08-01T05:34:25;19.40;99.90
17128;DHT22;8679;50.842;4.322;2022-08-01T05:36:51;19.40;99.90
17128;DHT22;8679;50.842;4.322;2022-08-01T05:39:16;19.50;99.90
17128;DHT22;8679;50.842;4.322;2022-08-01T05:41:42;19.60;99.90
17128;DHT22;8679;50.842;4.322;2022-08-01T05:44:08;19.60;99.90
17128;DHT22;8679;50.842;4.322;2022-08-01T05:46:34;19.70;99.90
17128;DHT22;8679;50.842;4.322;2022-08-01T05:49:01;19.70;99.90
17128;DHT22;8679;50.842;4.322;2022-08-01T05:51:27;19.80;99.90
17128;DHT22;8679;50.842;4.322;2022-08-01T05:53:53;19.80;99.90
17128;DHT22;8679;50.842;4.322;2022-08-01T05:56:20;19.80;99.90
17128;DHT22;8679;50.842;4.322;2022-08-01T05:58:47;19.80;99.90
17128;DHT22;8679;50.842;4.322;2022-08-01T06:01:12;19.90;99.90
17128;DHT22;8679;50.842;4.322;2022-08-01T06:03:38;19.90;99.90
17128;DHT22;8679;50.842;4.322;2022-08-01T06:06:04;20.00;99.90
17128;DHT22;8679;50.842;4.322;2022-08-01T06:08:30;20.00;99.90
17128;DHT22;8679;50.842;4.322;2022-08-01T06:10:56;20.10;99.90
17128;DHT22;8679;50.842;4.322;2022-08-01T06:13:22;20.10;99.90
17128;DHT22;8679;50.842;4.322;2022-08-01T06:15:48;20.20;99.90
17128;DHT22;8679;50.842;4.322;2022-08-01T06:18:15;20.10;99.90
17128;DHT22;8679;50.842;4.322;2022-08-01T06:20:41;20.10;99.90
17128;DHT22;8679;50.842;4.322;2022-08-01T06:23:07;20.20;99.90
17128;DHT22;8679;50.842;4.322;2022-08-01T06:25:32;20.30;99.90
17128;DHT22;8679;50.842;4.322;2022-08-01T06:27:59;20.40;99.90
17128;DHT22;8679;50.842;4.322;2022-08-01T06:30:25;20.60;99.90
17128;DHT22;8679;50.842;4.322;2022-08-01T06:32:51;20.70;99.90
17128;DHT22;8679;50.842;4.322;2022-08-01T06:35:17;20.80;99.90
17128;DHT22;8679;50.842;4.322;2022-08-01T06:37:43;20.80;99.90
17128;DHT22;8679;50.842;4.322;2022-08-01T06:40:11;20.90;99.90
17128;DHT22;8679;50.842;4.322;2022-08-01T06:42:37;21.00;99.90
17128;DHT22;8679;50.842;4.322;2022-08-01T06:45:07;21.00;99.90
17128;DHT22;8679;50.842;4.322;2022-08-01T06:47:33;21.00;99.90
17128;DHT22;8679;50.842;4.322;2022-08-01T06:49:59;21.00;99.90
17128;DHT22;8679;50.842;4.322;2022-08-01T06:52:25;21.10;99.90
17128;DHT22;8679;50.842;4.322;2022-08-01T06:54:51;21.10;99.90
17128;DHT22;8679;50.842;4.322;2022-08-01T06:57:17;21.10;99.90
17128;DHT22;8679;50.842;4.322;2022-08-01T06:59:43;21.10;99.90
17128;DHT22;8679;50.842;4.322;2022-08-01T07:02:08;21.30;99.90
17128;DHT22;8679;50.842;4.322;2022-08-01T07:04:34;21.40;99.90
17128;DHT22;8679;50.842;4.322;2022-08-01T07:07:00;21.40;99.90
17128;DHT22;8679;50.842;4.322;2022-08-01T07:09:26;21.40;99.90
17128;DHT22;8679;50.842;4.322;2022-08-01T07:11:52;21.40;99.90
17128;DHT22;8679;50.842;4.322;2022-08-01T07:14:20;21.50;99.90
17128;DHT22;8679;50.842;4.322;2022-08-01T07:16:46;21.60;99.90
17128;DHT22;8679;50.842;4.322;2022-08-01T07:19:12;21.60;99.90
17128;DHT22;8679;50.842;4.322;2022-08-01T07:21:38;21.60;99.90
17128;DHT22;8679;50.842;4.322;2022-08-01T07:24:05;21.60;99.90
17128;DHT22;8679;50.842;4.322;2022-08-01T07:26:31;21.60;99.90
17128;DHT22;8679;50.842;4.322;2022-08-01T07:28:57;21.80;99.90
17128;DHT22;8679;50.842;4.322;2022-08-01T07:31:22;21.80;99.90
17128;DHT22;8679;50.842;4.322;2022-08-01T07:33:49;21.80;99.90
17128;DHT22;8679;50.842;4.322;2022-08-01T07:36:16;21.80;99.90
17128;DHT22;8679;50.842;4.322;2022-08-01T07:38:42;21.90;99.90
17128;DHT22;8679;50.842;4.322;2022-08-01T07:41:07;21.80;99.90
17128;DHT22;8679;50.842;4.322;2022-08-01T07:43:33;21.80;99.90
17128;DHT22;8679;50.842;4.322;2022-08-01T07:46:01;21.70;99.90
17128;DHT22;8679;50.842;4.322;2022-08-01T07:48:27;21.70;99.90
17128;DHT22;8679;50.842;4.322;2022-08-01T07:50:53;21.80;99.90
17128;DHT22;8679;50.842;4.322;2022-08-01T07:53:19;21.90;99.90
17128;DHT22;8679;50.842;4.322;2022-08-01T07:55:45;22.00;99.90
17128;DHT22;8679;50.842;4.322;2022-08-01T07:58:10;22.20;99.90
17128;DHT22;8679;50.842;4.322;2022-08-01T08:00:36;22.30;99.90
17128;DHT22;8679;50.842;4.322;2022-08-01T08:03:02;22.30;99.90
17128;DHT22;8679;50.842;4.322;2022-08-01T08:05:27;22.30;99.90
17128;DHT22;8679;50.842;4.322;2022-08-01T08:07:53;22.40;99.90
17128;DHT22;8679;50.842;4.322;2022-08-01T08:10:19;22.50;99.90
17128;DHT22;8679;50.842;4.322;2022-08-01T08:12:44;22.30;99.90
17128;DHT22;8679;50.842;4.322;2022-08-01T08:15:12;22.20;99.90
17128;DHT22;8679;50.842;4.322;2022-08-01T08:17:38;22.10;99.90
17128;DHT22;8679;50.842;4.322;2022-08-01T08:20:09;21.80;99.90
17128;DHT22;8679;50.842;4.322;2022-08-01T08:22:35;21.70;99.90
17128;DHT22;8679;50.842;4.322;2022-08-01T08:25:00;22.00;99.90
17128;DHT22;8679;50.842;4.322;2022-08-01T08:27:26;22.10;99.90
17128;DHT22;8679;50.842;4.322;2022-08-01T08:29:52;22.40;99.90
17128;DHT22;8679;50.842;4.322;2022-08-01T08:32:17;22.60;99.90
17128;DHT22;8679;50.842;4.322;2022-08-01T08:34:43;22.70;99.90
17128;DHT22;8679;50.842;4.322;2022-08-01T08:37:10;23.00;99.90
17128;DHT22;8679;50.842;4.322;2022-08-01T08:39:36;23.10;99.90
17128;DHT22;8679;50.842;4.322;2022-08-01T08:42:06;23.00;99.90
17128;DHT22;8679;50.842;4.322;2022-08-01T08:44:32;22.90;99.90
17128;DHT22;8679;50.842;4.322;2022-08-01T08:46:59;22.90;99.90
17128;DHT22;8679;50.842;4.322;2022-08-01T08:49:27;23.00;99.90
17128;DHT22;8679;50.842;4.322;2022-08-01T08:51:58;23.10;99.90
17128;DHT22;8679;50.842;4.322;2022-08-01T08:54:25;23.30;99.90
17128;DHT22;8679;50.842;4.322;2022-08-01T08:56:55;23.30;99.90
17128;DHT22;8679;50.842;4.322;2022-08-01T08:59:21;23.20;99.90
17128;DHT22;8679;50.842;4.322;2022-08-01T09:01:49;22.90;99.90
17128;DHT22;8679;50.842;4.322;2022-08-01T09:04:15;22.90;99.90
17128;DHT22;8679;50.842;4.322;2022-08-01T09:06:41;22.80;99.90
17128;DHT22;8679;50.842;4.322;2022-08-01T09:09:07;22.90;99.90
17128;DHT22;8679;50.842;4.322;2022-08-01T09:11:34;22.90;99.90
17128;DHT22;8679;50.842;4.322;2022-08-01T09:16:34;23.20;99.90
17128;DHT22;8679;50.842;4.322;2022-08-01T09:19:07;23.30;99.90
17128;DHT22;8679;50.842;4.322;2022-08-01T09:21:33;23.50;99.90
17128;DHT22;8679;50.842;4.322;2022-08-01T09:23:59;23.60;99.90
17128;DHT22;8679;50.842;4.322;2022-08-01T09:26:33;23.80;99.90
17128;DHT22;8679;50.842;4.322;2022-08-01T09:29:02;23.90;99.90
17128;DHT22;8679;50.842;4.322;2022-08-01T09:31:28;23.80;99.90
17128;DHT22;8679;50.842;4.322;2022-08-01T09:34:01;23.60;99.90
17128;DHT22;8679;50.842;4.322;2022-08-01T09:36:50;23.50;99.90
17128;DHT22;8679;50.842;4.322;2022-08-01T09:39:33;23.10;99.90
17128;DHT22;8679;50.842;4.322;2022-08-01T09:42:01;23.00;99.90
17128;DHT22;8679;50.842;4.322;2022-08-01T09:44:41;23.00;99.90
17128;DHT22;8679;50.842;4.322;2022-08-01T09:47:08;23.20;99.90
17128;DHT22;8679;50.842;4.322;2022-08-01T09:49:37;23.40;99.90
17128;DHT22;8679;50.842;4.322;2022-08-01T09:52:16;23.50;99.90
17128;DHT22;8679;50.842;4.322;2022-08-01T09:54:43;23.60;99.90
17128;DHT22;8679;50.842;4.322;2022-08-01T09:57:13;23.60;99.90
17128;DHT22;8679;50.842;4.322;2022-08-01T09:59:41;23.80;99.90
17128;DHT22;8679;50.842;4.322;2022-08-01T10:02:09;24.00;99.90
17128;DHT22;8679;50.842;4.322;2022-08-01T10:04:36;24.10;99.90
17128;DHT22;8679;50.842;4.322;2022-08-01T10:07:06;24.20;99.90
17128;DHT22;8679;50.842;4.322;2022-08-01T10:09:35;24.30;99.90
17128;DHT22;8679;50.842;4.322;2022-08-01T10:12:02;24.40;99.90
17128;DHT22;8679;50.842;4.322;2022-08-01T10:14:29;24.50;99.90
17128;DHT22;8679;50.842;4.322;2022-08-01T10:16:57;24.60;99.90
17128;DHT22;8679;50.842;4.322;2022-08-01T10:19:24;25.00;99.90
17128;DHT22;8679;50.842;4.322;2022-08-01T10:21:51;25.30;99.90
17128;DHT22;8679;50.842;4.322;2022-08-01T10:24:20;25.50;99.90
17128;DHT22;8679;50.842;4.322;2022-08-01T10:26:52;25.60;99.90
17128;DHT22;8679;50.842;4.322;2022-08-01T10:29:21;25.80;99.90
17128;DHT22;8679;50.842;4.322;2022-08-01T10:31:47;25.90;99.90
17128;DHT22;8679;50.842;4.322;2022-08-01T10:34:16;26.00;99.90
17128;DHT22;8679;50.842;4.322;2022-08-01T10:36:47;25.80;99.90
17128;DHT22;8679;50.842;4.322;2022-08-01T10:39:14;25.50;99.90
17128;DHT22;8679;50.842;4.322;2022-08-01T10:41:40;25.30;99.90
17128;DHT22;8679;50.842;4.322;2022-08-01T10:44:07;25.00;99.90
17128;DHT22;8679;50.842;4.322;2022-08-01T10:46:50;24.80;99.90
17128;DHT22;8679;50.842;4.322;2022-08-01T10:49:20;25.00;99.90
17128;DHT22;8679;50.842;4.322;2022-08-01T10:51:47;24.90;99.90
17128;DHT22;8679;50.842;4.322;2022-08-01T10:54:13;24.90;99.90
17128;DHT22;8679;50.842;4.322;2022-08-01T10:59:08;25.00;99.90
17128;DHT22;8679;50.842;4.322;2022-08-01T11:01:34;25.30;99.90
17128;DHT22;8679;50.842;4.322;2022-08-01T11:04:13;25.80;99.90
17128;DHT22;8679;50.842;4.322;2022-08-01T11:07:07;26.10;99.90
17128;DHT22;8679;50.842;4.322;2022-08-01T11:09:43;26.40;99.90
17128;DHT22;8679;50.842;4.322;2022-08-01T11:12:14;26.60;99.90
17128;DHT22;8679;50.842;4.322;2022-08-01T11:20:39;25.80;99.90
17128;DHT22;8679;50.842;4.322;2022-08-01T11:23:19;26.10;99.90
17128;DHT22;8679;50.842;4.322;2022-08-01T11:30:52;26.40;99.90
17128;DHT22;8679;50.842;4.322;2022-08-01T11:33:47;26.00;99.90
17128;DHT22;8679;50.842;4.322;2022-08-01T11:47:04;26.40;99.90
17128;DHT22;8679;50.842;4.322;2022-08-01T11:49:49;26.50;99.90
17128;DHT22;8679;50.842;4.322;2022-08-01T11:54:53;26.70;99.90
17128;DHT22;8679;50.842;4.322;2022-08-01T11:57:37;26.80;99.90
17128;DHT22;8679;50.842;4.322;2022-08-01T12:02:33;27.70;99.90
17128;DHT22;8679;50.842;4.322;2022-08-01T12:05:00;27.70;99.90
17128;DHT22;8679;50.842;4.322;2022-08-01T12:07:27;27.50;99.90
17128;DHT22;8679;50.842;4.322;2022-08-01T12:12:28;27.10;99.90
17128;DHT22;8679;50.842;4.322;2022-08-01T12:14:56;27.30;99.90
17128;DHT22;8679;50.842;4.322;2022-08-01T12:17:40;27.60;99.90
17128;DHT22;8679;50.842;4.322;2022-08-01T12:20:08;27.80;99.90
17128;DHT22;8679;50.842;4.322;2022-08-01T12:22:35;28.10;99.90
17128;DHT22;8679;50.842;4.322;2022-08-01T12:25:15;28.20;99.90
17128;DHT22;8679;50.842;4.322;2022-08-01T12:27:43;28.50;99.90
17128;DHT22;8679;50.842;4.322;2022-08-01T12:30:11;28.60;99.90
17128;DHT22;8679;50.842;4.322;2022-08-01T12:32:38;29.00;99.90
17128;DHT22;8679;50.842;4.322;2022-08-01T12:35:13;28.50;99.90
17128;DHT22;8679;50.842;4.322;2022-08-01T12:37:44;28.50;99.90
17128;DHT22;8679;50.842;4.322;2022-08-01T12:40:19;28.70;99.90
17128;DHT22;8679;50.842;4.322;2022-08-01T12:42:48;28.90;99.90
17128;DHT22;8679;50.842;4.322;2022-08-01T12:45:17;28.70;99.90
17128;DHT22;8679;50.842;4.322;2022-08-01T12:47:44;28.90;99.90
17128;DHT22;8679;50.842;4.322;2022-08-01T12:50:14;29.10;99.90
17128;DHT22;8679;50.842;4.322;2022-08-01T12:52:40;29.00;99.90
17128;DHT22;8679;50.842;4.322;2022-08-01T12:55:20;29.20;99.90
17128;DHT22;8679;50.842;4.322;2022-08-01T12:57:50;29.40;99.90
17128;DHT22;8679;50.842;4.322;2022-08-01T13:00:27;29.30;99.90
17128;DHT22;8679;50.842;4.322;2022-08-01T13:10:41;29.20;99.90
17128;DHT22;8679;50.842;4.322;2022-08-01T13:13:08;28.80;99.90
17128;DHT22;8679;50.842;4.322;2022-08-01T13:15:37;28.80;99.90
17128;DHT22;8679;50.842;4.322;2022-08-01T13:18:24;28.50;99.90
17128;DHT22;8679;50.842;4.322;2022-08-01T13:20:50;28.70;99.90
17128;DHT22;8679;50.842;4.322;2022-08-01T13:23:31;29.10;99.90
17128;DHT22;8679;50.842;4.322;2022-08-01T13:25:57;29.40;99.90
17128;DHT22;8679;50.842;4.322;2022-08-01T13:28:25;29.20;99.90
17128;DHT22;8679;50.842;4.322;2022-08-01T13:31:06;28.40;99.90
17128;DHT22;8679;50.842;4.322;2022-08-01T13:33:45;27.80;99.90
17128;DHT22;8679;50.842;4.322;2022-08-01T13:36:11;27.50;99.90
17128;DHT22;8679;50.842;4.322;2022-08-01T13:38:39;27.40;99.90
17128;DHT22;8679;50.842;4.322;2022-08-01T13:41:23;27.40;99.90
17128;DHT22;8679;50.842;4.322;2022-08-01T13:43:49;27.50;99.90
17128;DHT22;8679;50.842;4.322;2022-08-01T13:46:15;27.80;99.90
17128;DHT22;8679;50.842;4.322;2022-08-01T13:48:40;28.40;99.90
17128;DHT22;8679;50.842;4.322;2022-08-01T13:51:06;29.20;99.90
17128;DHT22;8679;50.842;4.322;2022-08-01T13:53:32;29.90;99.90
17128;DHT22;8679;50.842;4.322;2022-08-01T13:55:57;30.60;99.90
17128;DHT22;8679;50.842;4.322;2022-08-01T13:58:23;30.80;99.90
17128;DHT22;8679;50.842;4.322;2022-08-01T14:00:49;31.00;99.90
17128;DHT22;8679;50.842;4.322;2022-08-01T14:03:14;31.70;99.90
17128;DHT22;8679;50.842;4.322;2022-08-01T14:05:43;32.20;96.50
17128;DHT22;8679;50.842;4.322;2022-08-01T14:08:09;32.80;94.50
17128;DHT22;8679;50.842;4.322;2022-08-01T14:10:35;33.20;90.30
17128;DHT22;8679;50.842;4.322;2022-08-01T14:13:01;33.40;87.40
17128;DHT22;8679;50.842;4.322;2022-08-01T14:15:27;33.40;79.10
17128;DHT22;8679;50.842;4.322;2022-08-01T14:17:52;33.60;80.60
17128;DHT22;8679;50.842;4.322;2022-08-01T14:20:18;34.00;74.60
17128;DHT22;8679;50.842;4.322;2022-08-01T14:22:46;34.50;73.30
17128;DHT22;8679;50.842;4.322;2022-08-01T14:25:11;33.90;66.20
17128;DHT22;8679;50.842;4.322;2022-08-01T14:27:37;33.30;66.80
17128;DHT22;8679;50.842;4.322;2022-08-01T14:30:06;33.10;68.20
17128;DHT22;8679;50.842;4.322;2022-08-01T14:32:32;32.70;69.00
17128;DHT22;8679;50.842;4.322;2022-08-01T14:34:59;32.50;69.70
17128;DHT22;8679;50.842;4.322;2022-08-01T14:37:25;32.20;70.10
17128;DHT22;8679;50.842;4.322;2022-08-01T14:39:50;31.70;69.90
17128;DHT22;8679;50.842;4.322;2022-08-01T14:42:16;31.20;72.80
17128;DHT22;8679;50.842;4.322;2022-08-01T14:44:42;31.40;75.10
17128;DHT22;8679;50.842;4.322;2022-08-01T14:47:08;32.00;71.60
17128;DHT22;8679;50.842;4.322;2022-08-01T14:49:33;32.80;69.20
17128;DHT22;8679;50.842;4.322;2022-08-01T14:51:59;33.70;68.10
17128;DHT22;8679;50.842;4.322;2022-08-01T14:54:25;33.80;64.00
17128;DHT22;8679;50.842;4.322;2022-08-01T14:56:50;34.20;61.60
17128;DHT22;8679;50.842;4.322;2022-08-01T14:59:18;34.80;60.70
17128;DHT22;8679;50.842;4.322;2022-08-01T15:01:44;35.10;56.20
17128;DHT22;8679;50.842;4.322;2022-08-01T15:04:10;35.20;54.50
17128;DHT22;8679;50.842;4.322;2022-08-01T15:06:36;35.60;55.70
17128;DHT22;8679;50.842;4.322;2022-08-01T15:09:02;35.70;52.50
17128;DHT22;8679;50.842;4.322;2022-08-01T15:11:27;36.10;50.90
17128;DHT22;8679;50.842;4.322;2022-08-01T15:13:53;36.60;49.80
17128;DHT22;8679;50.842;4.322;2022-08-01T15:16:42;37.20;46.20
17128;DHT22;8679;50.842;4.322;2022-08-01T15:19:08;35.70;44.00
17128;DHT22;8679;50.842;4.322;2022-08-01T15:21:33;35.20;46.10
17128;DHT22;8679;50.842;4.322;2022-08-01T15:23:59;35.70;46.10
17128;DHT22;8679;50.842;4.322;2022-08-01T15:26:25;36.90;43.10
17128;DHT22;8679;50.842;4.322;2022-08-01T15:28:50;36.50;40.60
17128;DHT22;8679;50.842;4.322;2022-08-01T15:31:17;35.20;42.20
17128;DHT22;8679;50.842;4.322;2022-08-01T15:33:42;34.60;44.60
17128;DHT22;8679;50.842;4.322;2022-08-01T15:36:08;34.80;44.30
17128;DHT22;8679;50.842;4.322;2022-08-01T15:38:34;35.00;44.10
17128;DHT22;8679;50.842;4.322;2022-08-01T15:40:59;36.00;43.30
17128;DHT22;8679;50.842;4.322;2022-08-01T15:43:25;35.90;40.10
17128;DHT22;8679;50.842;4.322;2022-08-01T15:45:50;35.80;40.60
17128;DHT22;8679;50.842;4.322;2022-08-01T15:48:16;36.50;38.90
17128;DHT22;8679;50.842;4.322;2022-08-01T15:50:42;37.10;39.30
17128;DHT22;8679;50.842;4.322;2022-08-01T15:53:08;37.90;37.80
17128;DHT22;8679;50.842;4.322;2022-08-01T15:55:40;38.00;34.50
17128;DHT22;8679;50.842;4.322;2022-08-01T15:58:06;37.60;35.40
17128;DHT22;8679;50.842;4.322;2022-08-01T16:00:32;37.70;36.50
17128;DHT22;8679;50.842;4.322;2022-08-01T16:02:58;38.20;34.00
17128;DHT22;8679;50.842;4.322;2022-08-01T16:05:23;37.60;33.70
17128;DHT22;8679;50.842;4.322;2022-08-01T16:07:49;37.60;34.00
17128;DHT22;8679;50.842;4.322;2022-08-01T16:10:15;38.30;31.50
17128;DHT22;8679;50.842;4.322;2022-08-01T16:12:40;38.60;31.40
17128;DHT22;8679;50.842;4.322;2022-08-01T16:15:06;38.60;31.60
17128;DHT22;8679;50.842;4.322;2022-08-01T16:17:32;39.20;30.10
17128;DHT22;8679;50.842;4.322;2022-08-01T16:19:58;39.80;28.30
17128;DHT22;8679;50.842;4.322;2022-08-01T16:22:24;39.60;28.00
17128;DHT22;8679;50.842;4.322;2022-08-01T16:24:50;39.40;28.60
17128;DHT22;8679;50.842;4.322;2022-08-01T16:27:16;39.10;27.70
17128;DHT22;8679;50.842;4.322;2022-08-01T16:29:42;39.10;28.00
17128;DHT22;8679;50.842;4.322;2022-08-01T16:32:07;39.20;27.60
17128;DHT22;8679;50.842;4.322;2022-08-01T16:34:33;39.40;27.90
17128;DHT22;8679;50.842;4.322;2022-08-01T16:36:58;39.10;27.40
17128;DHT22;8679;50.842;4.322;2022-08-01T16:39:24;39.50;27.10
17128;DHT22;8679;50.842;4.322;2022-08-01T16:41:50;39.50;26.50
17128;DHT22;8679;50.842;4.322;2022-08-01T16:44:16;39.20;26.70
17128;DHT22;8679;50.842;4.322;2022-08-01T16:46:42;39.20;26.40